Airfield :
LOGIN :

Register | Disclaimer

   EN    FR    IT 

 










Legend :    VFR   Marginal VFR   IFR   Intensive IFR   Very Intensive IFR
Visi :
Ceiling :
>= 8 km
>= 3000ft
5 to 8 km
1000 to 3000 ft
1500m to 5 km
500 to 1000 ft
800 to 1500m
200 to 500 ft
< 800m
< 200 ft
Symbols :   Thunderstorms  Fog  Heavy snow  Heavy precipitations  Wind > 20 kt
SIGMETs :     Misc.  Thunderstorms  Icing  Turbulence  Mountain Waves  Volcanic Ashes






- Airport Elevation : 117 ft
- IATA code : NWI


EGSH - Norwich

CURRENT METAR :
  • 080220Z AUTO 21020G33KT 7000 +RA FEW001/// SCT009/// BKN014/// 10/09 Q0998

EXPIRED METARs :
  • 080150Z AUTO 20019G30KT 7000 RA BKN011/// BKN015/// OVC019/// 10/09 Q0998 RERA
  • 080120Z AUTO 21019G29KT 180V240 9999 RA FEW007/// OVC012/// 10/08 Q0999
  • 080050Z AUTO 20021KT 180V240 9999 OVC013/// 10/08 Q1000
  • 080020Z AUTO 21018KT 9999 OVC013/// 10/08 Q1001
  • 072350Z AUTO 21019KT 180V240 9999 OVC013/// 10/08 Q1002

TAF TAF EGSH
Valid from the 08 at 03:00 until the 08 at 12:00 UTC


080156Z 0803/0812 23015KT 9999 BKN011
TEMPO 0803/0806 23018G35KT 7000 -RA SCT011 BKN015
BECMG 0806/0808 SCT025
TEMPO 0806/0812 24018G30KT
PROB30
TEMPO 0808/0812 7000 SHRA
ATIS : +44 1603 420 640



MET'MAP, your aeronautical weather chart ! - Copyright ORBIFLY December 2007 - Disclaimer

ORBIFLY MET'MAP TEAM :

Programming & Development : Alexandra Zaïnal
Concept & original design : Baudouin d'Aumeries
Assistance for programming : Marc-Olivier Méhu
Technical & hardware support : Manuel Goepfert

Contact : metmap@orbifly.com




SOURCES & CREDITS :

   NOAA